createdAt,value
2018-11-28T00:00:59.523Z,16.77
2018-11-28T00:03:34.659Z,17.37
2018-11-28T00:06:09.680Z,18.73
2018-11-28T00:08:44.484Z,25.77
2018-11-28T00:11:19.435Z,18.00
2018-11-28T00:13:54.233Z,20.50
2018-11-28T00:16:29.224Z,16.93
2018-11-28T00:19:05.084Z,17.42
2018-11-28T00:21:40.484Z,16.75
2018-11-28T00:24:15.921Z,16.32
2018-11-28T00:26:51.864Z,15.87
2018-11-28T00:29:26.822Z,18.80
2018-11-28T00:32:02.476Z,16.42
2018-11-28T00:34:38.195Z,16.97
2018-11-28T00:37:13.149Z,17.02
2018-11-28T00:39:48.841Z,17.65
2018-11-28T00:42:28.202Z,16.93
2018-11-28T00:45:03.335Z,16.65
2018-11-28T00:47:44.857Z,16.97
2018-11-28T00:50:23.270Z,16.42
2018-11-28T00:52:58.388Z,16.75
2018-11-28T00:55:33.093Z,16.15
2018-11-28T00:58:07.938Z,17.00
2018-11-28T01:00:42.697Z,17.07
2018-11-28T01:03:17.479Z,19.12
2018-11-28T01:05:53.047Z,16.50
2018-11-28T01:08:27.920Z,21.23
2018-11-28T01:11:02.989Z,20.65
2018-11-28T01:13:38.124Z,16.12
2018-11-28T01:16:13.226Z,19.62
2018-11-28T01:18:48.385Z,19.12
2018-11-28T01:21:23.072Z,17.40
2018-11-28T01:23:58.587Z,17.48
2018-11-28T01:26:33.476Z,17.92
2018-11-28T01:29:09.334Z,18.92
2018-11-28T01:31:44.013Z,19.73
2018-11-28T01:34:19.079Z,19.42
2018-11-28T01:36:53.930Z,20.92
2018-11-28T01:39:28.905Z,20.10
2018-11-28T01:42:04.342Z,18.50
2018-11-28T01:44:39.699Z,17.98
2018-11-28T01:47:14.532Z,19.03
2018-11-28T01:49:49.838Z,18.90
2018-11-28T01:52:24.901Z,19.45
2018-11-28T01:54:59.712Z,19.75
2018-11-28T01:57:34.557Z,19.30
2018-11-28T02:00:25.802Z,19.95
2018-11-28T02:03:01.665Z,19.35
2018-11-28T02:05:37.464Z,20.35
2018-11-28T02:08:13.395Z,20.72
2018-11-28T02:10:48.251Z,21.80
2018-11-28T02:13:23.396Z,19.15
2018-11-28T02:15:59.217Z,21.55
2018-11-28T02:18:34.164Z,19.93
2018-11-28T02:21:09.712Z,19.50
2018-11-28T02:23:44.560Z,18.27
2018-11-28T02:26:19.377Z,19.37
2018-11-28T02:28:54.229Z,18.65
2018-11-28T02:31:29.017Z,17.15
2018-11-28T02:34:04.355Z,19.50
2018-11-28T02:36:39.582Z,18.62
2018-11-28T02:39:21.446Z,21.87
2018-11-28T02:41:56.381Z,19.82
2018-11-28T02:44:31.072Z,19.17
2018-11-28T02:47:06.145Z,18.30
2018-11-28T02:49:40.861Z,18.20
2018-11-28T02:52:15.812Z,18.90
2018-11-28T02:54:51.214Z,16.90
2018-11-28T02:57:26.264Z,20.62
2018-11-28T03:00:01.202Z,19.50
2018-11-28T03:02:35.974Z,19.53
2018-11-28T03:05:12.137Z,19.57
2018-11-28T03:07:47.459Z,18.95
2018-11-28T03:10:23.090Z,19.30
2018-11-28T03:13:04.668Z,19.90
2018-11-28T03:15:41.548Z,19.65
2018-11-28T03:18:17.034Z,21.43
2018-11-28T03:20:52.140Z,21.07
2018-11-28T03:23:28.018Z,19.82
2018-11-28T03:26:02.993Z,18.67
2018-11-28T03:28:37.941Z,19.73
2018-11-28T03:31:13.132Z,15.83
2018-11-28T03:33:48.181Z,16.25
2018-11-28T03:36:23.097Z,17.07
2018-11-28T03:38:58.174Z,17.55
2018-11-28T03:41:33.014Z,15.40
2018-11-28T03:44:08.198Z,17.27
2018-11-28T03:46:43.502Z,18.82
2018-11-28T03:49:18.386Z,16.90
2018-11-28T03:51:53.459Z,17.00
2018-11-28T03:54:28.451Z,17.45
2018-11-28T03:57:03.563Z,16.93
2018-11-28T03:59:38.554Z,17.67
2018-11-28T04:02:13.392Z,18.02
2018-11-28T04:04:48.201Z,17.23
2018-11-28T04:07:23.101Z,21.53
2018-11-28T04:09:58.694Z,17.95
2018-11-28T04:12:34.387Z,16.82
2018-11-28T04:15:15.191Z,16.70
2018-11-28T04:17:50.382Z,15.10
2018-11-28T04:20:25.841Z,21.50
2018-11-28T04:23:00.541Z,18.37
2018-11-28T04:25:35.811Z,19.15
2018-11-28T04:28:10.608Z,17.57
2018-11-28T04:30:45.556Z,17.90
2018-11-28T04:33:20.945Z,25.23
2018-11-28T04:35:56.616Z,24.32
2018-11-28T04:38:31.405Z,23.50
2018-11-28T04:41:06.508Z,26.05
2018-11-28T04:43:41.741Z,20.52
2018-11-28T04:46:16.880Z,20.85
2018-11-28T04:48:51.828Z,20.63
2018-11-28T04:51:26.580Z,24.85
2018-11-28T04:54:01.491Z,17.73
2018-11-28T04:56:36.566Z,21.23
2018-11-28T04:59:11.896Z,20.40
2018-11-28T05:01:46.635Z,19.50
2018-11-28T05:04:22.166Z,20.72
2018-11-28T05:07:29.253Z,20.07
2018-11-28T05:10:05.067Z,20.87
2018-11-28T05:12:40.394Z,20.13
2018-11-28T05:15:16.909Z,22.27
2018-11-28T05:17:53.465Z,24.60
2018-11-28T05:20:29.725Z,43.75
2018-11-28T05:23:06.166Z,29.50
2018-11-28T05:25:41.457Z,41.73
2018-11-28T05:28:16.520Z,25.60
2018-11-28T05:30:51.362Z,29.77
2018-11-28T05:33:32.517Z,27.60
2018-11-28T05:36:07.889Z,24.05
2018-11-28T05:38:43.109Z,21.33
2018-11-28T05:41:18.541Z,41.98
2018-11-28T05:43:53.957Z,44.88
2018-11-28T05:46:32.749Z,38.30
2018-11-28T05:49:07.574Z,48.80
2018-11-28T05:51:42.844Z,50.47
2018-11-28T05:54:17.954Z,59.95
2018-11-28T05:56:53.303Z,85.72
2018-11-28T05:59:29.148Z,119.13
2018-11-28T06:02:04.987Z,99.15
2018-11-28T06:04:40.135Z,129.87
2018-11-28T06:07:15.019Z,179.87
2018-11-28T06:09:50.373Z,156.70
2018-11-28T06:12:25.591Z,112.85
2018-11-28T06:15:02.474Z,91.63
2018-11-28T06:17:38.072Z,100.90
2018-11-28T06:20:14.613Z,79.40
2018-11-28T06:22:49.543Z,83.53
2018-11-28T06:25:24.386Z,95.05
2018-11-28T06:27:59.273Z,75.78
2018-11-28T06:30:34.497Z,51.23
2018-11-28T06:33:09.681Z,66.35
2018-11-28T06:35:44.675Z,40.73
2018-11-28T06:38:19.509Z,32.57
2018-11-28T06:40:55.373Z,30.35
2018-11-28T06:43:30.511Z,42.87
2018-11-28T06:46:06.136Z,42.35
2018-11-28T06:48:41.383Z,99.37
2018-11-28T06:51:16.396Z,62.93
2018-11-28T06:53:51.265Z,85.80
2018-11-28T06:56:26.941Z,108.80
2018-11-28T06:59:01.736Z,76.33
2018-11-28T07:01:36.855Z,68.47
2018-11-28T07:04:12.074Z,107.12
2018-11-28T07:06:47.556Z,58.35
2018-11-28T07:09:22.809Z,28.57
2018-11-28T07:11:57.872Z,31.25
2018-11-28T07:14:33.599Z,27.52
2018-11-28T07:17:09.032Z,24.30
2018-11-28T07:19:44.310Z,21.95
2018-11-28T07:22:19.180Z,25.00
2018-11-28T07:24:54.311Z,24.30
2018-11-28T07:27:29.287Z,22.77
2018-11-28T07:30:07.181Z,22.70
2018-11-28T07:32:42.748Z,21.23
2018-11-28T07:35:17.786Z,22.82
2018-11-28T07:37:52.886Z,22.58
2018-11-28T07:40:28.087Z,19.82
2018-11-28T07:43:18.710Z,21.33
2018-11-28T07:45:54.170Z,19.60
2018-11-28T07:48:29.489Z,21.65
2018-11-28T07:51:04.847Z,22.32
2018-11-28T07:53:39.750Z,23.12
2018-11-28T07:56:15.124Z,36.80
2018-11-28T07:58:50.091Z,60.40
2018-11-28T08:01:25.531Z,63.60
2018-11-28T08:04:00.262Z,51.53
2018-11-28T08:06:35.219Z,52.33
2018-11-28T08:09:10.572Z,40.52
2018-11-28T08:11:45.484Z,38.92
2018-11-28T08:14:20.480Z,40.98
2018-11-28T08:16:55.308Z,39.13
2018-11-28T08:19:30.516Z,38.50
2018-11-28T08:22:05.916Z,37.65
2018-11-28T08:24:41.658Z,35.52
2018-11-28T08:27:16.706Z,30.83
2018-11-28T08:29:53.035Z,30.32
2018-11-28T08:32:27.736Z,32.75
2018-11-28T08:35:02.769Z,29.80
2018-11-28T08:37:37.549Z,30.10
2018-11-28T08:40:21.626Z,29.35
2018-11-28T08:42:57.536Z,31.03
2018-11-28T08:45:32.686Z,26.27
2018-11-28T08:48:09.005Z,27.07
2018-11-28T08:50:44.057Z,46.77
2018-11-28T08:53:19.023Z,27.05
2018-11-28T08:55:54.128Z,23.42
2018-11-28T08:58:29.882Z,21.55
2018-11-28T09:01:05.624Z,22.45
2018-11-28T09:03:40.845Z,21.37
2018-11-28T09:06:16.076Z,23.25
2018-11-28T09:08:50.997Z,22.00
2018-11-28T09:11:25.728Z,22.97
2018-11-28T09:14:04.539Z,26.30
2018-11-28T09:16:36.060Z,26.70
2018-11-28T09:19:10.987Z,27.15
2018-11-28T09:21:46.358Z,26.15
2018-11-28T09:24:21.459Z,23.90
2018-11-28T09:26:56.545Z,22.27
2018-11-28T09:29:31.569Z,17.30
2018-11-28T09:32:07.449Z,17.75
2018-11-28T09:34:42.253Z,16.40
2018-11-28T09:37:17.226Z,17.32
2018-11-28T09:39:52.273Z,16.65
2018-11-28T09:42:27.072Z,17.05
2018-11-28T09:45:01.826Z,17.00
2018-11-28T09:47:37.045Z,15.90
2018-11-28T09:50:16.816Z,16.02
2018-11-28T09:52:52.009Z,16.50
2018-11-28T09:55:28.355Z,15.95
2018-11-28T09:58:03.407Z,16.17
2018-11-28T10:00:38.564Z,17.30
2018-11-28T10:03:13.445Z,16.17
2018-11-28T10:05:48.321Z,16.77
2018-11-28T10:08:23.398Z,16.25
2018-11-28T10:10:58.488Z,15.60
2018-11-28T10:13:33.732Z,15.58
2018-11-28T10:16:08.780Z,17.07
2018-11-28T10:18:43.817Z,17.37
2018-11-28T10:21:19.902Z,18.87
2018-11-28T10:23:54.935Z,18.20
2018-11-28T10:26:30.568Z,15.28
2018-11-28T10:29:06.365Z,15.23
2018-11-28T10:31:41.452Z,14.68
2018-11-28T10:34:16.757Z,15.00
2018-11-28T10:36:51.988Z,14.70
2018-11-28T10:39:27.877Z,45.20
2018-11-28T10:42:02.993Z,33.88
2018-11-28T10:44:39.126Z,49.38
2018-11-28T10:47:14.557Z,16.57
2018-11-28T10:49:49.304Z,22.55
2018-11-28T10:52:24.432Z,16.20
2018-11-28T10:54:59.865Z,16.52
2018-11-28T10:57:35.338Z,16.02
2018-11-28T11:00:17.549Z,16.35
2018-11-28T11:02:58.371Z,121.60
2018-11-28T11:05:39.106Z,29.27
2018-11-28T11:08:19.992Z,45.47
2018-11-28T11:11:00.404Z,15.05
2018-11-28T11:13:41.395Z,15.40
2018-11-28T11:16:20.369Z,15.00
2018-11-28T11:18:55.544Z,14.58
2018-11-28T11:21:30.653Z,14.80
2018-11-28T11:24:05.979Z,11.43
2018-11-28T11:26:40.603Z,12.43
2018-11-28T11:29:15.671Z,11.60
2018-11-28T11:31:50.745Z,13.73
2018-11-28T11:34:25.540Z,12.60
2018-11-28T11:37:00.557Z,22.90
2018-11-28T11:39:35.229Z,30.87
2018-11-28T11:42:10.068Z,16.37
2018-11-28T11:44:44.822Z,12.53
2018-11-28T11:47:20.652Z,15.17
2018-11-28T11:49:55.366Z,19.83
2018-11-28T11:52:30.690Z,13.87
2018-11-28T11:55:07.893Z,12.83
2018-11-28T11:57:42.836Z,13.47
2018-11-28T12:00:19.212Z,13.43
2018-11-28T12:02:59.723Z,19.43
2018-11-28T12:05:34.826Z,49.93
2018-11-28T12:08:10.200Z,20.40
2018-11-28T12:10:44.912Z,21.37
2018-11-28T12:13:20.173Z,20.33
2018-11-28T12:15:55.340Z,15.90
2018-11-28T12:18:30.449Z,19.83
2018-11-28T12:21:06.881Z,19.37
2018-11-28T12:23:41.905Z,17.73
2018-11-28T12:26:16.589Z,13.70
2018-11-28T12:28:51.330Z,17.47
2018-11-28T12:31:26.938Z,17.00
2018-11-28T12:34:01.863Z,16.00
2018-11-28T12:36:36.868Z,15.33
2018-11-28T12:39:11.603Z,19.70
2018-11-28T12:41:46.849Z,13.03
2018-11-28T12:44:21.765Z,24.00
2018-11-28T12:46:56.634Z,17.10
2018-11-28T12:49:31.625Z,14.20
2018-11-28T12:52:06.612Z,15.30
2018-11-28T12:54:41.598Z,16.73
2018-11-28T12:57:16.376Z,12.57
2018-11-28T12:59:51.456Z,13.73
2018-11-28T13:02:26.385Z,10.80
2018-11-28T13:05:01.301Z,12.23
2018-11-28T13:07:36.101Z,17.20
2018-11-28T13:10:18.506Z,13.47
2018-11-28T13:12:53.619Z,12.87
2018-11-28T13:15:29.193Z,11.50
2018-11-28T13:18:04.171Z,12.60
2018-11-28T13:20:40.928Z,13.27
2018-11-28T13:23:15.808Z,10.93
2018-11-28T13:25:50.761Z,12.63
2018-11-28T13:28:25.524Z,12.03
2018-11-28T13:31:00.547Z,12.90
2018-11-28T13:33:35.308Z,10.67
2018-11-28T13:36:10.432Z,13.20
2018-11-28T13:38:45.850Z,11.00
2018-11-28T13:41:20.890Z,11.23
2018-11-28T13:43:56.483Z,12.17
2018-11-28T13:46:31.309Z,11.77
2018-11-28T13:49:06.396Z,13.50
2018-11-28T13:51:41.496Z,12.87
2018-11-28T13:54:21.328Z,13.77
2018-11-28T13:57:01.853Z,12.43
2018-11-28T13:59:26.510Z,14.40
2018-11-28T14:02:01.339Z,13.13
2018-11-28T14:04:35.905Z,13.33
2018-11-28T14:07:10.802Z,13.10
2018-11-28T14:09:46.469Z,13.37
2018-11-28T14:12:21.958Z,13.13
2018-11-28T14:14:57.088Z,13.60
2018-11-28T14:17:32.544Z,12.37
2018-11-28T14:20:09.543Z,12.83
2018-11-28T14:22:44.461Z,13.70
2018-11-28T14:25:19.404Z,11.93
2018-11-28T14:27:54.220Z,12.73
2018-11-28T14:30:29.799Z,11.77
2018-11-28T14:33:05.116Z,14.33
2018-11-28T14:35:40.325Z,12.63
2018-11-28T14:38:15.451Z,13.03
2018-11-28T14:40:50.265Z,13.00
2018-11-28T14:43:25.941Z,12.63
2018-11-28T14:46:00.953Z,13.57
2018-11-28T14:48:35.980Z,14.53
2018-11-28T14:51:10.883Z,12.57
2018-11-28T14:53:48.141Z,13.97
2018-11-28T14:56:20.941Z,13.53
2018-11-28T14:58:56.276Z,13.77
2018-11-28T15:01:31.113Z,13.93
2018-11-28T15:04:06.586Z,12.97
2018-11-28T15:06:54.979Z,13.83
2018-11-28T15:09:36.687Z,14.83
2018-11-28T15:12:12.996Z,15.13
2018-11-28T15:14:48.682Z,14.33
2018-11-28T15:17:23.649Z,14.10
2018-11-28T15:19:58.939Z,16.00
2018-11-28T15:22:34.492Z,14.63
2018-11-28T15:25:10.597Z,13.90
2018-11-28T15:27:45.236Z,23.97
2018-11-28T15:30:20.263Z,18.27
2018-11-28T15:32:55.352Z,18.00
2018-11-28T15:35:30.449Z,16.93
2018-11-28T15:38:05.397Z,16.90
2018-11-28T15:40:40.541Z,17.70
2018-11-28T15:43:15.692Z,16.73
2018-11-28T15:45:50.946Z,18.53
2018-11-28T15:48:25.717Z,15.70
2018-11-28T15:51:00.888Z,16.07
2018-11-28T15:53:36.484Z,15.37
2018-11-28T15:56:11.420Z,17.20
2018-11-28T15:58:46.259Z,18.23
2018-11-28T16:01:21.249Z,15.67
2018-11-28T16:03:56.185Z,18.40
2018-11-28T16:06:31.538Z,16.80
2018-11-28T16:09:12.663Z,20.47
2018-11-28T16:11:48.240Z,19.80
2018-11-28T16:14:23.044Z,25.67
2018-11-28T16:16:58.656Z,22.43
2018-11-28T16:19:33.368Z,19.17
2018-11-28T16:22:08.649Z,50.80
2018-11-28T16:24:44.270Z,202.33
2018-11-28T16:27:19.430Z,24.70
2018-11-28T16:29:54.489Z,66.77
2018-11-28T16:32:29.399Z,82.77
2018-11-28T16:35:05.223Z,53.07
2018-11-28T16:37:40.537Z,21.27
2018-11-28T16:40:16.425Z,90.20
2018-11-28T16:42:51.439Z,70.67
2018-11-28T16:45:26.300Z,61.30
2018-11-28T16:48:01.196Z,68.10
2018-11-28T16:50:36.334Z,71.20
2018-11-28T16:53:11.938Z,28.63
2018-11-28T16:55:46.768Z,154.73
2018-11-28T16:58:22.220Z,157.30
2018-11-28T17:00:57.920Z,30.47
2018-11-28T17:03:32.651Z,18.83
2018-11-28T17:06:07.339Z,21.33
2018-11-28T17:08:42.072Z,19.83
2018-11-28T17:11:17.002Z,19.07
2018-11-28T17:13:51.680Z,17.20
2018-11-28T17:16:26.351Z,16.17
2018-11-28T17:19:01.345Z,18.27
2018-11-28T17:21:36.311Z,17.63
2018-11-28T17:24:11.133Z,15.23
2018-11-28T17:26:46.095Z,16.63
2018-11-28T17:29:20.944Z,18.47
2018-11-28T17:31:55.943Z,18.43
2018-11-28T17:34:30.688Z,19.03
2018-11-28T17:37:06.669Z,17.33
2018-11-28T17:39:41.465Z,16.97
2018-11-28T17:42:16.359Z,21.17
2018-11-28T17:44:51.015Z,17.13
2018-11-28T17:47:25.969Z,19.27
2018-11-28T17:50:01.724Z,17.00
2018-11-28T17:52:36.450Z,18.23
2018-11-28T17:55:13.923Z,15.37
2018-11-28T17:57:48.694Z,17.87
2018-11-28T18:00:23.814Z,21.63
2018-11-28T18:02:58.720Z,22.47
2018-11-28T18:05:33.472Z,18.57
2018-11-28T18:08:08.279Z,19.80
2018-11-28T18:10:43.166Z,16.63
2018-11-28T18:13:19.081Z,16.63
2018-11-28T18:15:54.754Z,21.07
2018-11-28T18:18:30.954Z,23.37
2018-11-28T18:21:04.666Z,19.20
2018-11-28T18:23:39.554Z,17.80
2018-11-28T18:26:15.502Z,17.67
2018-11-28T18:28:50.243Z,18.83
2018-11-28T18:31:25.344Z,18.03
2018-11-28T18:34:00.331Z,18.90
2018-11-28T18:36:35.110Z,20.47
2018-11-28T18:39:09.791Z,24.63
2018-11-28T18:41:45.148Z,21.10
2018-11-28T18:44:20.026Z,21.27
2018-11-28T18:46:54.959Z,16.00
2018-11-28T18:49:30.231Z,17.97
2018-11-28T18:52:05.182Z,27.07
2018-11-28T18:54:40.222Z,37.40
2018-11-28T18:57:15.360Z,28.17
2018-11-28T18:59:50.304Z,30.70
2018-11-28T19:02:25.329Z,30.87
2018-11-28T19:05:00.396Z,31.30
2018-11-28T19:07:35.128Z,22.20
2018-11-28T19:10:12.726Z,22.47
2018-11-28T19:12:48.117Z,18.53
2018-11-28T19:15:25.283Z,18.33
2018-11-28T19:18:00.157Z,23.00
2018-11-28T19:20:35.155Z,22.40
2018-11-28T19:23:10.087Z,17.43
2018-11-28T19:25:49.743Z,21.07
2018-11-28T19:28:19.716Z,18.90
2018-11-28T19:30:55.314Z,18.53
2018-11-28T19:33:30.294Z,20.97
2018-11-28T19:36:05.778Z,19.43
2018-11-28T19:38:40.766Z,18.80
2018-11-28T19:41:22.990Z,19.37
2018-11-28T19:43:57.971Z,22.93
2018-11-28T19:46:33.477Z,17.43
2018-11-28T19:49:08.286Z,18.27
2018-11-28T19:51:43.228Z,20.13
2018-11-28T19:54:18.334Z,16.67
2018-11-28T19:56:53.150Z,16.43
2018-11-28T19:59:27.936Z,17.80
2018-11-28T20:02:02.823Z,19.53
2018-11-28T20:04:37.699Z,16.33
2018-11-28T20:07:12.490Z,19.33
2018-11-28T20:09:47.457Z,19.00
2018-11-28T20:12:22.479Z,20.33
2018-11-28T20:14:57.394Z,18.50
2018-11-28T20:17:32.432Z,18.13
2018-11-28T20:20:10.561Z,20.53
2018-11-28T20:22:45.900Z,18.70
2018-11-28T20:25:22.787Z,18.43
2018-11-28T20:27:59.715Z,19.57
2018-11-28T20:30:38.961Z,17.17
2018-11-28T20:33:15.204Z,20.30
2018-11-28T20:35:50.520Z,20.40
2018-11-28T20:38:28.251Z,19.77
2018-11-28T20:41:03.501Z,19.97
2018-11-28T20:43:38.418Z,18.87
2018-11-28T20:46:13.312Z,21.47
2018-11-28T20:48:48.202Z,18.63
2018-11-28T20:51:23.083Z,19.23
2018-11-28T20:53:57.973Z,17.37
2018-11-28T20:56:32.782Z,20.07
2018-11-28T20:59:08.851Z,20.47
2018-11-28T21:01:43.133Z,19.43
2018-11-28T21:04:17.956Z,17.27
2018-11-28T21:06:52.780Z,19.07
2018-11-28T21:09:27.655Z,19.63
2018-11-28T21:12:02.565Z,19.97
2018-11-28T21:14:37.323Z,19.63
2018-11-28T21:17:12.110Z,19.23
2018-11-28T21:19:47.073Z,23.13
2018-11-28T21:22:21.744Z,25.90
2018-11-28T21:24:56.453Z,26.40
2018-11-28T21:27:31.257Z,31.07
2018-11-28T21:30:16.707Z,30.73
2018-11-28T21:32:52.652Z,27.60
2018-11-28T21:35:32.137Z,25.73
2018-11-28T21:38:07.857Z,27.87
2018-11-28T21:40:42.725Z,24.60
2018-11-28T21:43:17.851Z,22.03
2018-11-28T21:45:52.561Z,20.13
2018-11-28T21:48:27.477Z,21.33
2018-11-28T21:51:02.853Z,18.77
2018-11-28T21:53:37.614Z,18.17
2018-11-28T21:56:12.576Z,18.57
2018-11-28T21:58:47.487Z,17.83
2018-11-28T22:01:22.300Z,19.37
2018-11-28T22:03:57.217Z,18.70
2018-11-28T22:06:32.252Z,19.07
2018-11-28T22:09:09.692Z,17.53
2018-11-28T22:11:44.485Z,21.80
2018-11-28T22:14:19.308Z,20.83
2018-11-28T22:16:53.977Z,20.23
2018-11-28T22:19:28.864Z,18.10
2018-11-28T22:22:04.058Z,16.73
2018-11-28T22:24:38.855Z,18.90
2018-11-28T22:27:13.606Z,19.33
2018-11-28T22:29:48.331Z,19.03
2018-11-28T22:32:23.266Z,20.67
2018-11-28T22:34:57.948Z,19.57
2018-11-28T22:37:32.724Z,17.50
2018-11-28T22:40:13.894Z,18.63
2018-11-28T22:42:49.347Z,18.93
2018-11-28T22:45:25.364Z,20.93
2018-11-28T22:48:00.339Z,34.70
2018-11-28T22:50:35.164Z,22.90
2018-11-28T22:53:09.965Z,21.33
2018-11-28T22:55:44.826Z,19.27
2018-11-28T22:58:19.623Z,21.03
2018-11-28T23:01:00.225Z,21.10
2018-11-28T23:03:35.316Z,18.87
2018-11-28T23:06:10.293Z,19.07
2018-11-28T23:08:45.095Z,17.67
2018-11-28T23:11:19.781Z,23.47
2018-11-28T23:13:54.668Z,21.60
2018-11-28T23:16:29.629Z,19.13
2018-11-28T23:19:04.832Z,22.27
2018-11-28T23:21:39.591Z,20.50
2018-11-28T23:24:14.332Z,19.90
2018-11-28T23:26:49.112Z,18.37
2018-11-28T23:29:23.767Z,16.50
2018-11-28T23:31:59.137Z,17.03
2018-11-28T23:34:33.800Z,18.00
2018-11-28T23:37:08.748Z,17.57
2018-11-28T23:39:43.539Z,17.80
2018-11-28T23:42:18.327Z,18.13
2018-11-28T23:44:53.971Z,22.17
2018-11-28T23:47:29.043Z,19.13
2018-11-28T23:50:05.104Z,18.33
2018-11-28T23:52:39.947Z,17.53
2018-11-28T23:55:16.189Z,17.10
2018-11-28T23:57:51.339Z,16.23
